Amber, Iowa
Current Conditions -  °F | °C
As of 11:55 AM on Sunday 21 Dec 2014 (Local Time) from KMXO Reporting Station
Overcast Overcast  
Wind Chill: -1°   Ceiling: 1800
Heat Index:   Visibility: 7mi
Dew Point:   Wind: 12mph
Humidity: 100%   Direction: 170°S
Pressure: 30"   Gusts: NA
Location:  42.1396°N, 91.2844°W
Report Text: KMXO 211755Z AUTO 17010KT 7SM OVC018 03/03 A3000 RMK AO2
Loading
Personal Weather Stations






























Interactive Weather Map New forecast layout! Learn more

10-Day Weather Forecast

Advertisements
Track Severe Weather on mobile